Time;durP1;ratioP1;P1;durP2;ratioP2;P2;SDS_P1;SDS_P2;PMS_P1;PMS_P2;Temp;Humidity;BMP_temperature;BMP_pressure;BME280_temperature;BME280_humidity;BME280_pressure;Samples;Min_cycle;Max_cycle;Signal;HPM_P1;HPM_P2
2022/01/04 00:02:27;;;;;;;1.37;1.27;;;;;;;7.12;100.00;95325.25;5134840;27;20470;-53
2022/01/04 00:04:56;;;;;;;0.93;0.93;;;;;;;6.75;100.00;95333.00;5135042;27;20522;-53
2022/01/04 00:07:24;;;;;;;0.30;0.20;;;;;;;7.05;100.00;95324.66;5134944;27;20419;-53
2022/01/04 00:09:53;;;;;;;2.17;2.07;;;;;;;7.33;100.00;95324.44;5134349;27;20864;-53
2022/01/04 00:15:10;;;;;;;0.60;0.40;;;;;;;5.92;100.00;95314.72;5134444;27;20434;-53
2022/01/04 00:17:39;;;;;;;0.70;0.70;;;;;;;6.19;100.00;95320.94;5134120;27;20451;-53
2022/01/04 00:20:09;;;;;;;1.00;1.00;;;;;;;6.78;100.00;95329.84;5134337;27;20488;-53
2022/01/04 00:22:38;;;;;;;1.20;0.90;;;;;;;7.25;100.00;95322.25;5134882;27;20454;-53
2022/01/04 00:25:07;;;;;;;2.60;2.40;;;;;;;7.41;100.00;95313.44;5134154;27;20513;-53
2022/01/04 00:27:37;;;;;;;0.30;0.20;;;;;;;7.40;100.00;95311.84;5134399;27;20847;-53
2022/01/04 00:30:07;;;;;;;0.30;0.30;;;;;;;7.44;100.00;95315.56;5134216;27;20447;-53
2022/01/04 00:32:35;;;;;;;0.40;0.40;;;;;;;7.63;100.00;95316.81;5134468;27;20419;-53
2022/01/04 00:35:04;;;;;;;0.57;0.57;;;;;;;7.71;100.00;95320.03;5133996;27;20481;-53
2022/01/04 00:37:32;;;;;;;0.93;0.90;;;;;;;7.52;100.00;95323.03;5133906;27;20420;-53
2022/01/04 00:40:01;;;;;;;4.00;0.70;;;;;;;7.55;100.00;95324.38;5134215;27;20426;-53
2022/01/04 00:42:29;;;;;;;0.30;0.30;;;;;;;7.55;100.00;95321.75;5134133;27;20450;-53
2022/01/04 00:44:59;;;;;;;0.40;0.40;;;;;;;7.58;100.00;95311.50;5133895;27;20474;-53
2022/01/04 00:47:40;;;;;;;0.83;0.83;;;;;;;7.58;100.00;95308.88;5134021;27;20458;-53
2022/01/04 00:50:09;;;;;;;1.07;1.07;;;;;;;6.76;100.00;95324.03;5133901;27;20458;-53
2022/01/04 00:52:38;;;;;;;2.40;1.53;;;;;;;6.14;100.00;95339.28;5133864;27;20491;-53
2022/01/04 00:55:07;;;;;;;1.20;1.20;;;;;;;5.41;100.00;95320.16;5132764;27;20521;-53
2022/01/04 00:57:35;;;;;;;5.73;2.93;;;;;;;5.21;100.00;95335.56;5133647;27;20419;-53
2022/01/04 01:00:08;;;;;;;1.30;1.20;;;;;;;6.18;100.00;95331.69;5133778;27;20439;-53
2022/01/04 01:02:36;;;;;;;1.00;1.00;;;;;;;6.67;100.00;95330.00;5133798;27;20852;-53
2022/01/04 01:05:07;;;;;;;1.23;1.13;;;;;;;5.85;100.00;95321.97;5132822;27;20478;-53
2022/01/04 01:07:35;;;;;;;0.70;0.70;;;;;;;4.83;100.00;95329.06;5133419;27;20422;-53
2022/01/04 01:10:22;;;;;;;0.87;0.87;;;;;;;4.59;100.00;95326.72;5133662;27;20431;-53
2022/01/04 01:12:51;;;;;;;1.30;1.30;;;;;;;5.41;100.00;95341.19;5133374;27;20877;-53
2022/01/04 01:15:21;;;;;;;2.93;1.27;;;;;;;5.96;100.00;95336.88;5133350;27;20458;-53
2022/01/04 01:17:49;;;;;;;0.93;0.93;;;;;;;6.24;100.00;95343.88;5133655;27;20438;-53
2022/01/04 01:20:18;;;;;;;0.77;0.77;;;;;;;6.15;100.00;95348.75;5133355;27;20475;-53
2022/01/04 01:22:47;;;;;;;1.73;1.00;;;;;;;6.18;100.00;95343.00;5133553;27;20435;-53
2022/01/04 01:25:16;;;;;;;0.30;0.30;;;;;;;6.26;100.00;95352.31;5133163;27;20559;-53
2022/01/04 01:27:45;;;;;;;6.77;1.43;;;;;;;6.27;100.00;95357.34;5133184;27;20426;-53
2022/01/04 01:30:14;;;;;;;0.73;0.73;;;;;;;5.85;100.00;95348.28;5133269;27;20433;-53
2022/01/04 01:32:44;;;;;;;2.53;2.00;;;;;;;6.29;100.00;95344.75;5133053;27;20931;-53
2022/01/04 01:35:13;;;;;;;5.20;0.60;;;;;;;6.52;100.00;95350.84;5131978;27;20479;-53
2022/01/04 01:37:41;;;;;;;1.23;1.10;;;;;;;6.63;100.00;95347.34;5132976;27;20415;-53
2022/01/04 01:40:11;;;;;;;0.40;0.30;;;;;;;6.57;100.00;95350.94;5133111;27;20477;-53
2022/01/04 01:42:40;;;;;;;0.70;0.70;;;;;;;6.29;100.00;95347.38;5133264;27;20453;-53
2022/01/04 01:45:12;;;;;;;0.40;0.40;;;;;;;6.36;100.00;95334.03;5132668;27;20481;-53
2022/01/04 01:47:41;;;;;;;0.53;0.53;;;;;;;6.51;100.00;95325.56;5132341;27;20483;-53
2022/01/04 01:50:12;;;;;;;0.30;0.20;;;;;;;6.70;100.00;95326.88;5133006;27;20470;-54
2022/01/04 01:52:43;;;;;;;6.33;0.40;;;;;;;6.79;100.00;95322.75;5132072;27;20422;-54
2022/01/04 01:55:13;;;;;;;0.43;0.43;;;;;;;6.60;100.00;95324.91;5132796;27;20487;-53
2022/01/04 01:57:41;;;;;;;0.40;0.30;;;;;;;5.62;100.00;95269.50;5132856;27;20419;-53
2022/01/04 02:00:13;;;;;;;1.83;1.77;;;;;;;5.97;100.00;95316.66;5133010;27;20426;-53
2022/01/04 02:02:42;;;;;;;0.30;0.20;;;;;;;6.04;100.00;95307.56;5133068;27;20473;-53
2022/01/04 02:05:12;;;;;;;6.23;0.53;;;;;;;5.17;100.00;95308.16;5132272;27;20977;-53
2022/01/04 02:07:42;;;;;;;1.83;1.83;;;;;;;5.62;100.00;95307.13;5131730;27;20899;-53
2022/01/04 02:10:11;;;;;;;2.00;0.50;;;;;;;6.08;100.00;95295.50;5132567;27;20423;-53
2022/01/04 02:12:42;;;;;;;0.30;0.20;;;;;;;6.30;100.00;95301.59;5132965;28;20456;-53
2022/01/04 02:15:13;;;;;;;1.67;0.97;;;;;;;5.91;100.00;95241.31;5132419;28;20513;-53
2022/01/04 02:17:42;;;;;;;1.53;0.87;;;;;;;6.58;100.00;95302.50;5132522;28;20486;-53
2022/01/04 02:20:13;;;;;;;0.50;0.47;;;;;;;6.56;100.00;95301.91;5132457;28;20790;-53
2022/01/04 02:22:42;;;;;;;1.40;1.40;;;;;;;6.64;100.00;95306.78;5132329;27;20430;-53
2022/01/04 02:25:12;;;;;;;0.40;0.40;;;;;;;6.62;100.00;95303.59;5132156;28;20575;-53
2022/01/04 02:27:41;;;;;;;1.57;1.03;;;;;;;6.71;100.00;95312.66;5131568;28;20458;-53
2022/01/04 02:30:14;;;;;;;0.50;0.40;;;;;;;6.03;100.00;95202.53;5131910;28;20423;-53
2022/01/04 02:32:43;;;;;;;0.97;0.97;;;;;;;6.75;100.00;95304.03;5132612;28;20474;-53
2022/01/04 02:35:14;;;;;;;0.40;0.30;;;;;;;6.53;100.00;95302.44;5131987;28;20919;-53
2022/01/04 02:37:43;;;;;;;1.07;1.07;;;;;;;6.02;100.00;95314.84;5132464;27;20511;-53
2022/01/04 02:40:12;;;;;;;0.40;0.30;;;;;;;6.23;100.00;95306.25;5132415;28;20455;-53
2022/01/04 02:42:41;;;;;;;0.30;0.30;;;;;;;6.24;100.00;95310.47;5131907;28;20426;-53
2022/01/04 02:45:10;;;;;;;1.50;1.50;;;;;;;6.33;100.00;95314.28;5132307;28;20466;-53
2022/01/04 02:47:39;;;;;;;0.73;0.73;;;;;;;6.15;100.00;95311.09;5132176;28;20419;-53
2022/01/04 02:50:09;;;;;;;2.30;2.10;;;;;;;4.93;100.00;95182.19;5132098;28;20483;-53
2022/01/04 02:52:39;;;;;;;3.33;0.80;;;;;;;5.72;100.00;95293.31;5132182;28;20422;-53
2022/01/04 02:55:10;;;;;;;0.70;0.70;;;;;;;6.21;100.00;95312.78;5132039;28;20434;-53
2022/01/04 02:57:38;;;;;;;2.30;1.83;;;;;;;6.27;100.00;95303.94;5132448;28;20430;-53
2022/01/04 03:00:10;;;;;;;0.40;0.37;;;;;;;6.50;100.00;95309.00;5131753;27;20435;-53
2022/01/04 03:02:39;;;;;;;2.80;2.70;;;;;;;6.33;100.00;95290.59;5131984;28;20450;-53
2022/01/04 03:05:09;;;;;;;1.30;1.30;;;;;;;6.47;100.00;95351.59;5130853;28;21059;-53
2022/01/04 03:07:39;;;;;;;4.13;1.60;;;;;;;6.39;100.00;95281.72;5131290;28;20473;-53
2022/01/04 03:10:08;;;;;;;0.30;0.20;;;;;;;6.54;100.00;95319.81;5132019;28;20966;-53
2022/01/04 03:12:39;;;;;;;0.53;0.50;;;;;;;6.21;100.00;95318.03;5131772;28;20903;-53
2022/01/04 03:15:08;;;;;;;2.00;1.90;;;;;;;6.32;100.00;95317.94;5132320;28;20800;-54
2022/01/04 03:17:36;;;;;;;0.70;0.70;;;;;;;6.34;100.00;95336.94;5133041;27;20988;-53
2022/01/04 03:20:07;;;;;;;2.53;1.17;;;;;;;5.60;100.00;95343.38;5135912;27;20790;-53
2022/01/04 03:22:35;;;;;;;0.67;0.67;;;;;;;5.04;100.00;95348.63;5135576;27;20430;-53
2022/01/04 03:25:06;;;;;;;0.70;0.70;;;;;;;4.77;100.00;95352.84;5135147;27;20457;-53
2022/01/04 03:27:35;;;;;;;2.83;0.70;;;;;;;5.22;100.00;95360.78;5135594;27;20422;-53
2022/01/04 03:30:04;;;;;;;0.80;0.80;;;;;;;5.23;100.00;95344.00;5135833;27;20473;-53
2022/01/04 03:32:33;;;;;;;1.90;1.07;;;;;;;4.67;100.00;95316.69;5135091;27;20483;-53
2022/01/04 03:35:01;;;;;;;0.90;0.43;;;;;;;5.08;100.00;95361.06;5135327;27;20419;-53
2022/01/04 03:37:30;;;;;;;1.17;1.07;;;;;;;4.84;100.00;95345.63;5135621;27;20487;-53
2022/01/04 03:39:58;;;;;;;2.60;1.80;;;;;;;4.73;100.00;95370.84;5134675;27;20446;-53
2022/01/04 03:42:28;;;;;;;1.70;1.17;;;;;;;4.91;100.00;95367.28;5135361;27;20426;-53
2022/01/04 03:44:57;;;;;;;2.73;2.63;;;;;;;5.12;100.00;95366.66;5134725;27;20546;-53
2022/01/04 03:47:25;;;;;;;0.80;0.80;;;;;;;5.27;100.00;95356.44;5134910;27;20470;-53
2022/01/04 03:49:53;;;;;;;2.10;1.43;;;;;;;5.18;100.00;95364.94;5135075;27;20471;-53
2022/01/04 03:52:22;;;;;;;1.17;1.07;;;;;;;5.09;100.00;95373.19;5135207;27;20430;-53
2022/01/04 03:54:50;;;;;;;0.43;0.43;;;;;;;4.77;100.00;95379.09;5135077;27;20950;-53
2022/01/04 03:57:19;;;;;;;1.73;1.33;;;;;;;4.77;100.00;95373.84;5135026;27;20414;-53
2022/01/04 03:59:49;;;;;;;1.67;1.63;;;;;;;4.41;100.00;95377.53;5135348;27;20434;-54
2022/01/04 04:02:17;;;;;;;0.60;0.60;;;;;;;4.53;100.00;95380.16;5134420;27;20474;-53
2022/01/04 04:04:46;;;;;;;1.33;1.23;;;;;;;4.54;100.00;95371.25;5134502;27;20430;-53
2022/01/04 04:07:14;;;;;;;1.37;1.17;;;;;;;4.09;100.00;95384.94;5134797;27;21064;-53
2022/01/04 04:09:43;;;;;;;1.67;1.10;;;;;;;4.19;100.00;95387.00;5135236;27;20495;-53
2022/01/04 04:12:13;;;;;;;2.00;1.90;;;;;;;4.58;100.00;95386.28;5134730;27;20487;-53
2022/01/04 04:14:42;;;;;;;0.80;0.80;;;;;;;4.90;100.00;95389.34;5134616;27;20480;-53
2022/01/04 04:17:15;;;;;;;3.03;0.90;;;;;;;4.83;100.00;95397.31;5133930;27;20419;-53
2022/01/04 04:19:44;;;;;;;0.43;0.43;;;;;;;4.35;100.00;95300.53;5134082;27;20431;-53
2022/01/04 04:22:12;;;;;;;0.53;0.50;;;;;;;4.01;100.00;95219.28;5134406;27;20510;-53
2022/01/04 04:24:41;;;;;;;0.30;0.20;;;;;;;5.23;100.00;95381.59;5134377;27;20870;-53
2022/01/04 04:27:09;;;;;;;1.13;0.77;;;;;;;5.21;100.00;95390.75;5134882;27;20466;-53
2022/01/04 04:29:38;;;;;;;0.30;0.20;;;;;;;5.21;100.00;95393.38;5133964;27;20456;-55
2022/01/04 04:32:07;;;;;;;0.30;0.30;;;;;;;4.94;100.00;95398.34;5133995;27;20781;-53
2022/01/04 04:34:38;;;;;;;1.00;1.00;;;;;;;4.73;100.00;95409.47;5134024;27;20510;-53
2022/01/04 04:37:06;;;;;;;0.30;0.20;;;;;;;4.97;100.00;95406.56;5134216;27;20470;-53
2022/01/04 04:39:34;;;;;;;2.60;1.53;;;;;;;5.03;100.00;95412.72;5133841;27;20512;-53
2022/01/04 04:42:04;;;;;;;0.40;0.30;;;;;;;5.10;100.00;95413.38;5133771;27;20434;-53
2022/01/04 04:44:33;;;;;;;0.63;0.63;;;;;;;5.13;100.00;95413.69;5134003;27;20466;-53
2022/01/04 04:47:01;;;;;;;0.50;0.47;;;;;;;3.70;100.00;95221.25;5132984;27;20458;-53
2022/01/04 04:49:29;;;;;;;0.30;0.20;;;;;;;5.00;100.00;95419.25;5133949;27;20418;-54
2022/01/04 04:52:00;;;;;;;0.50;0.50;;;;;;;4.84;100.00;95412.06;5134345;27;20430;-53
2022/01/04 04:54:30;;;;;;;0.40;0.30;;;;;;;4.43;100.00;95413.00;5133946;27;20450;-53
2022/01/04 04:56:58;;;;;;;1.27;1.17;;;;;;;4.29;100.00;95409.03;5133772;27;20468;-53
2022/01/04 04:59:27;;;;;;;0.30;0.27;;;;;;;4.78;100.00;95420.06;5133367;27;20503;-53
2022/01/04 05:01:56;;;;;;;1.90;1.80;;;;;;;4.90;100.00;95395.41;5133585;27;20470;-53
2022/01/04 05:04:25;;;;;;;0.83;0.83;;;;;;;4.93;100.00;95417.78;5133651;27;20422;-53
2022/01/04 05:06:54;;;;;;;0.43;0.43;;;;;;;4.21;100.00;95416.41;5132775;27;20462;-53
2022/01/04 05:09:24;;;;;;;1.70;1.00;;;;;;;3.80;100.00;95410.19;5133082;27;20892;-53
2022/01/04 05:11:52;;;;;;;5.00;3.60;;;;;;;3.72;100.00;95423.63;5133133;27;20415;-53
2022/01/04 05:14:21;;;;;;;1.70;1.70;;;;;;;3.45;100.00;95421.59;5132276;27;20430;-53
2022/01/04 05:16:49;;;;;;;0.90;0.90;;;;;;;3.23;100.00;95421.28;5132399;27;20430;-54
2022/01/04 05:19:19;;;;;;;1.97;1.87;;;;;;;3.28;100.00;95408.31;5133696;27;20422;-53
2022/01/04 05:21:47;;;;;;;3.60;3.30;;;;;;;3.55;100.00;95422.66;5133160;27;20458;-53
2022/01/04 05:24:15;;;;;;;0.93;0.93;;;;;;;3.80;100.00;95419.88;5132992;27;20419;-53
2022/01/04 05:26:45;;;;;;;1.70;1.20;;;;;;;3.79;100.00;95415.69;5132848;27;20514;-53
2022/01/04 05:29:14;;;;;;;0.53;0.53;;;;;;;3.91;100.00;95416.50;5132160;27;20495;-54
2022/01/04 05:31:42;;;;;;;1.27;1.27;;;;;;;3.15;100.00;95406.66;5132989;27;20461;-54
2022/01/04 05:34:11;;;;;;;1.07;1.07;;;;;;;3.22;100.00;95409.19;5132619;27;20883;-54
2022/01/04 05:36:39;;;;;;;1.30;1.30;;;;;;;3.41;100.00;95400.28;5132919;27;20426;-54
2022/01/04 05:39:08;;;;;;;9.93;2.20;;;;;;;3.83;100.00;95394.03;5132037;27;20876;-54
2022/01/04 05:41:36;;;;;;;0.30;0.20;;;;;;;3.78;100.00;95393.09;5132661;27;20902;-54
2022/01/04 05:44:07;;;;;;;1.70;1.60;;;;;;;4.00;100.00;95390.75;5132996;27;20470;-54
2022/01/04 05:46:35;;;;;;;4.03;1.30;;;;;;;4.30;100.00;95376.50;5132395;27;20462;-54
2022/01/04 05:49:04;;;;;;;1.70;1.13;;;;;;;4.42;100.00;95397.50;5132034;27;20422;-54
2022/01/04 05:51:32;;;;;;;0.77;0.77;;;;;;;4.46;100.00;95409.13;5132747;27;20422;-54
2022/01/04 05:54:01;;;;;;;0.50;0.50;;;;;;;4.39;100.00;95395.31;5132681;27;20445;-54
2022/01/04 05:56:29;;;;;;;0.80;0.80;;;;;;;4.33;100.00;95412.78;5132775;27;20483;-54
2022/01/04 05:58:58;;;;;;;2.17;2.07;;;;;;;4.33;100.00;95418.03;5132001;27;20434;-54
2022/01/04 06:01:28;;;;;;;0.70;0.70;;;;;;;4.26;100.00;95424.41;5132721;27;20470;-55
2022/01/04 06:03:56;;;;;;;1.43;0.67;;;;;;;4.36;100.00;95425.44;5132875;27;20483;-54
2022/01/04 06:06:25;;;;;;;0.83;0.83;;;;;;;4.60;100.00;95402.63;5132877;27;20462;-54
2022/01/04 06:08:53;;;;;;;0.30;0.30;;;;;;;4.97;100.00;95422.31;5132169;27;20491;-54
2022/01/04 06:16:54;;;;;;;4.93;2.53;;;;;;;3.34;100.00;95377.84;5132664;28;20430;-54
2022/01/04 06:19:22;;;;;;;0.60;0.60;;;;;;;4.28;100.00;95425.78;5132887;27;20457;-53
2022/01/04 06:21:51;;;;;;;4.10;3.53;;;;;;;4.25;100.00;95422.81;5132487;28;20479;-53
2022/01/04 06:24:19;;;;;;;0.73;0.73;;;;;;;4.19;100.00;95414.03;5131721;28;20502;-53
2022/01/04 06:26:48;;;;;;;1.50;1.17;;;;;;;3.86;100.00;95416.38;5132603;28;20466;-53
2022/01/04 06:29:18;;;;;;;1.50;1.43;;;;;;;3.42;100.00;95383.53;5132823;28;20907;-54
2022/01/04 06:31:47;;;;;;;5.50;5.13;;;;;;;4.03;100.00;95362.25;5133126;27;20477;-53
2022/01/04 06:34:17;;;;;;;0.90;0.90;;;;;;;4.84;100.00;95403.38;5132566;28;20473;-53
2022/01/04 06:36:45;;;;;;;1.80;0.80;;;;;;;5.17;100.00;95411.41;5132529;28;20430;-54
2022/01/04 06:39:14;;;;;;;0.80;0.80;;;;;;;5.60;100.00;95414.34;5131657;27;20910;-54
2022/01/04 06:41:42;;;;;;;3.47;3.17;;;;;;;5.54;100.00;95417.91;5131496;28;20484;-54
2022/01/04 06:44:11;;;;;;;7.13;1.10;;;;;;;4.88;100.00;95360.66;5132605;28;20426;-54
2022/01/04 06:46:45;;;;;;;4.20;3.80;;;;;;;4.43;100.00;95436.63;5131584;28;20974;-55
2022/01/04 06:49:14;;;;;;;5.60;5.40;;;;;;;4.36;100.00;95433.31;5132637;28;20462;-55
2022/01/04 06:51:44;;;;;;;3.57;3.47;;;;;;;4.61;100.00;95435.72;5133827;27;20854;-55
2022/01/04 06:54:17;;;;;;;4.57;4.40;;;;;;;4.84;100.00;95437.53;5136533;27;20430;-55
2022/01/04 06:56:47;;;;;;;4.03;3.73;;;;;;;5.56;100.00;95429.00;5136317;27;20838;-54
2022/01/04 06:59:17;;;;;;;1.30;1.30;;;;;;;5.99;100.00;95439.00;5135876;27;20445;-54
2022/01/04 07:01:46;;;;;;;2.20;1.90;;;;;;;5.99;100.00;95436.38;5136086;27;20481;-55
2022/01/04 07:04:15;;;;;;;2.10;1.10;;;;;;;6.02;100.00;95427.22;5135733;27;20458;-62
2022/01/04 07:06:45;;;;;;;3.03;2.90;;;;;;;6.00;100.00;95432.69;5135779;27;20542;-55
2022/01/04 07:09:13;;;;;;;3.20;3.10;;;;;;;6.49;100.00;95444.28;5136143;27;20422;-55
2022/01/04 07:11:42;;;;;;;2.73;2.63;;;;;;;6.04;100.00;95357.53;5135781;27;20459;-53
2022/01/04 07:14:10;;;;;;;2.20;2.10;;;;;;;6.46;97.01;95430.78;5136030;27;20427;-54
2022/01/04 07:16:39;;;;;;;1.70;1.70;;;;;;;6.51;98.02;95444.03;5135737;27;20438;-53
2022/01/04 07:19:07;;;;;;;0.70;0.70;;;;;;;6.51;98.22;95446.66;5135491;27;20450;-54
2022/01/04 07:21:36;;;;;;;1.40;1.30;;;;;;;6.55;98.21;95439.91;5135778;27;20426;-54
2022/01/04 07:24:06;;;;;;;1.83;1.73;;;;;;;6.28;97.76;95393.16;5135459;27;20506;-54
2022/01/04 07:26:35;;;;;;;2.60;2.50;;;;;;;6.41;99.40;95410.47;5136045;27;20451;-55
2022/01/04 07:29:03;;;;;;;0.50;0.50;;;;;;;6.49;100.00;95435.59;5134058;27;20461;-54
2022/01/04 07:31:32;;;;;;;5.00;1.87;;;;;;;6.79;100.00;95428.13;5135979;27;20852;-54
2022/01/04 07:34:01;;;;;;;1.80;1.70;;;;;;;7.37;99.34;95438.09;5135697;27;20918;-53
2022/01/04 07:36:31;;;;;;;1.70;1.67;;;;;;;7.53;98.29;95442.50;5135462;27;20441;-55
2022/01/04 07:39:00;;;;;;;3.73;3.43;;;;;;;8.08;95.43;95434.38;5135352;27;20473;-53
2022/01/04 07:41:29;;;;;;;6.97;6.47;;;;;;;8.58;88.54;95436.66;5135374;27;20487;-53
2022/01/04 07:43:58;;;;;;;5.33;5.00;;;;;;;8.91;83.35;95439.78;5135365;27;20458;-52
2022/01/04 07:46:27;;;;;;;8.70;3.40;;;;;;;9.18;85.72;95447.63;5134562;27;20454;-53
2022/01/04 07:48:55;;;;;;;4.47;4.17;;;;;;;9.70;77.73;95436.97;5134998;27;20494;-53
2022/01/04 07:51:24;;;;;;;4.83;4.23;;;;;;;10.03;74.40;95441.03;5135232;27;20427;-53
2022/01/04 07:53:53;;;;;;;11.90;3.87;;;;;;;10.28;73.81;95440.28;5134442;27;20423;-53
2022/01/04 07:56:21;;;;;;;16.10;8.83;;;;;;;10.42;70.34;95367.97;5134767;27;20855;-53
2022/01/04 07:58:52;;;;;;;15.77;7.53;;;;;;;11.27;64.39;95438.59;5135241;27;20419;-52
2022/01/04 08:01:20;;;;;;;4.20;4.00;;;;;;;11.71;61.56;95417.50;5134258;27;20481;-56
2022/01/04 08:03:49;;;;;;;4.87;4.67;;;;;;;12.07;61.33;95426.81;5134470;27;20423;-54
2022/01/04 08:06:18;;;;;;;9.50;5.70;;;;;;;12.33;58.83;95416.81;5134303;27;20431;-51
2022/01/04 08:08:46;;;;;;;8.50;5.17;;;;;;;12.54;57.96;95398.84;5135143;27;20535;-53
2022/01/04 08:11:18;;;;;;;3.60;3.30;;;;;;;13.20;56.57;95428.31;5134853;27;20839;-54
2022/01/04 08:13:47;;;;;;;5.00;3.10;;;;;;;13.00;54.66;95401.88;5134905;27;20851;-55
2022/01/04 08:16:17;;;;;;;4.03;3.73;;;;;;;13.42;53.82;95415.28;5134699;27;20434;-56
2022/01/04 08:18:46;;;;;;;7.73;6.97;;;;;;;13.54;53.38;95422.84;5132448;27;20519;-57
2022/01/04 08:21:33;;;;;;;12.10;5.20;;;;;;;13.91;52.40;95422.94;5132103;27;20419;-57
2022/01/04 08:24:02;;;;;;;3.20;3.10;;;;;;;14.59;50.47;95426.75;5130806;27;20535;-58
2022/01/04 08:26:30;;;;;;;2.10;1.97;;;;;;;15.05;49.18;95425.97;5131332;27;20484;-58
2022/01/04 08:28:59;;;;;;;6.10;4.20;;;;;;;14.65;48.26;95382.09;5131130;27;20462;-59
2022/01/04 08:31:29;;;;;;;3.30;2.97;;;;;;;14.11;49.58;95425.31;5131623;27;20873;-59
2022/01/04 08:33:58;;;;;;;8.00;6.10;;;;;;;14.19;50.27;95426.53;5132929;27;20415;-58
2022/01/04 08:39:14;;;;;;;4.37;4.17;;;;;;;15.45;48.97;95429.75;5132977;27;20490;-58
2022/01/04 08:41:45;;;;;;;3.30;3.10;;;;;;;15.57;48.73;95435.44;5134631;27;20419;-58
2022/01/04 08:44:14;;;;;;;12.40;4.77;;;;;;;15.04;47.72;95382.47;5134631;27;20430;-58
2022/01/04 08:46:44;;;;;;;5.50;5.10;;;;;;;15.00;48.23;95424.16;5133529;27;20473;-57
2022/01/04 08:49:13;;;;;;;4.07;3.77;;;;;;;14.32;48.99;95375.97;5133945;27;20491;-57
2022/01/04 08:51:41;;;;;;;2.80;2.30;;;;;;;14.06;49.36;95377.41;5134265;27;20480;-56
2022/01/04 08:54:10;;;;;;;1.97;1.87;;;;;;;14.94;48.76;95409.34;5134202;27;20427;-56
2022/01/04 08:56:39;;;;;;;2.27;2.07;;;;;;;15.01;47.29;95407.06;5134194;27;20479;-56
2022/01/04 08:59:08;;;;;;;3.70;3.50;;;;;;;15.70;45.29;95405.25;5134341;27;20427;-56
2022/01/04 09:01:37;;;;;;;13.30;3.27;;;;;;;16.13;45.05;95393.09;5133715;27;20466;-55
2022/01/04 09:04:07;;;;;;;3.77;2.63;;;;;;;16.80;44.04;95395.81;5133725;27;20418;-55
2022/01/04 09:06:36;;;;;;;2.87;2.67;;;;;;;16.28;44.01;95395.41;5133870;27;20438;-55
2022/01/04 09:09:05;;;;;;;4.83;4.60;;;;;;;15.82;45.60;95387.63;5133697;27;20466;-55
2022/01/04 09:11:33;;;;;;;4.57;3.53;;;;;;;15.68;45.89;95392.19;5134157;27;20490;-55
2022/01/04 09:14:20;;;;;;;6.70;5.33;;;;;;;15.77;45.75;95390.38;5133939;27;20491;-54
2022/01/04 09:19:36;;;;;;;4.83;4.47;;;;;;;15.18;45.24;95353.88;5133721;27;20419;-54
2022/01/04 09:22:05;;;;;;;3.27;2.43;;;;;;;15.71;42.88;95382.78;5133604;27;20479;-54
2022/01/04 09:24:34;;;;;;;0.60;0.60;;;;;;;16.63;41.50;95334.13;5133520;27;20906;-54
2022/01/04 09:27:06;;;;;;;3.63;3.23;;;;;;;16.55;41.83;95370.44;5133938;27;20511;-54
2022/01/04 09:29:35;;;;;;;2.53;2.10;;;;;;;18.11;39.88;95350.06;5133594;27;20465;-55
2022/01/04 09:32:06;;;;;;;1.83;1.60;;;;;;;17.83;39.94;95358.72;5133753;27;20462;-55
2022/01/04 09:34:35;;;;;;;4.47;1.90;;;;;;;18.20;38.64;95355.41;5133140;27;20415;-54
2022/01/04 09:37:05;;;;;;;3.07;0.80;;;;;;;18.52;38.41;95354.94;5133428;27;20446;-55
2022/01/04 09:39:33;;;;;;;2.37;1.80;;;;;;;18.17;39.24;95331.91;5133276;27;20824;-55
2022/01/04 09:42:02;;;;;;;1.93;1.10;;;;;;;17.71;39.21;95301.13;5133184;27;20451;-55
2022/01/04 09:44:31;;;;;;;2.00;1.90;;;;;;;18.09;39.77;95338.84;5132711;27;20419;-55
2022/01/04 09:47:02;;;;;;;1.13;1.13;;;;;;;18.90;37.34;95331.66;5133609;27;20505;-55
2022/01/04 09:49:31;;;;;;;2.10;1.13;;;;;;;18.85;36.32;95331.03;5133258;27;20466;-55
2022/01/04 09:52:02;;;;;;;2.57;2.47;;;;;;;19.28;35.70;95326.28;5133571;27;20434;-55
2022/01/04 09:54:32;;;;;;;2.20;2.10;;;;;;;19.90;35.89;95333.72;5133383;27;20450;-55
2022/01/04 09:57:02;;;;;;;1.77;1.67;;;;;;;21.04;34.47;95320.50;5133392;27;20475;-55
2022/01/04 09:59:30;;;;;;;0.83;0.83;;;;;;;20.83;33.87;95315.97;5133012;27;20430;-55
2022/01/04 10:02:13;;;;;;;7.93;1.77;;;;;;;20.04;33.50;95321.56;5132899;27;20531;-55
2022/01/04 10:04:42;;;;;;;1.50;1.40;;;;;;;20.60;34.04;95316.69;5133307;27;20449;-55
2022/01/04 10:07:12;;;;;;;0.53;0.53;;;;;;;20.21;34.82;95307.97;5132864;27;20426;-55
2022/01/04 10:09:44;;;;;;;0.97;0.93;;;;;;;20.23;34.15;95313.88;5132373;27;20512;-55
2022/01/04 10:12:14;;;;;;;1.13;1.03;;;;;;;20.31;35.17;95297.97;5132478;27;20441;-55
2022/01/04 10:14:44;;;;;;;1.40;1.30;;;;;;;20.60;34.12;95271.69;5132726;28;20423;-55
2022/01/04 10:17:14;;;;;;;1.67;1.60;;;;;;;20.32;35.59;95281.47;5132690;27;20427;-56
2022/01/04 10:19:45;;;;;;;7.40;1.17;;;;;;;20.53;35.34;95292.19;5132990;28;20419;-55
2022/01/04 10:22:23;;;;;;;0.83;0.83;;;;;;;21.72;32.78;95273.78;5132780;27;20457;-55
2022/01/04 10:25:11;;;;;;;1.17;1.17;;;;;;;21.55;32.98;95212.00;5132653;28;20836;-55
2022/01/04 10:27:41;;;;;;;1.23;0.80;;;;;;;21.70;32.93;95265.25;5135522;27;20403;-56
2022/01/04 10:30:23;;;;;;;1.50;1.50;;;;;;;21.38;31.83;95253.47;5136763;27;20526;-55
2022/01/04 10:32:55;;;;;;;1.07;1.07;;;;;;;21.42;32.09;95253.59;5136655;27;20437;-55
2022/01/04 10:35:27;;;;;;;16.37;2.80;;;;;;;21.72;32.03;95252.19;5136185;27;20817;-55
2022/01/04 10:37:58;;;;;;;2.60;0.73;;;;;;;22.64;30.45;95249.41;5136173;27;20411;-55
2022/01/04 10:40:28;;;;;;;2.13;2.03;;;;;;;21.99;30.53;95246.06;5136682;27;20427;-55
2022/01/04 10:43:08;;;;;;;0.90;0.90;;;;;;;22.60;29.77;95243.06;5136940;27;20475;-55
2022/01/04 10:45:38;;;;;;;1.53;1.53;;;;;;;22.90;29.31;95246.16;5136705;27;20435;-55
2022/01/04 10:48:19;;;;;;;3.10;1.37;;;;;;;21.74;30.77;95228.34;5137114;27;20456;-55
2022/01/04 10:50:50;;;;;;;1.70;1.60;;;;;;;21.20;31.37;95225.16;5136508;27;20435;-55
2022/01/04 10:53:27;;;;;;;1.60;1.50;;;;;;;21.30;31.63;95222.03;5136824;27;20499;-55
2022/01/04 10:55:58;;;;;;;1.10;1.00;;;;;;;19.68;33.62;95221.09;5136310;27;20418;-55
2022/01/04 10:58:33;;;;;;;2.10;1.90;;;;;;;19.93;34.13;95233.53;5136263;27;20821;-55
2022/01/04 11:01:06;;;;;;;2.13;0.60;;;;;;;21.39;31.62;95214.59;5135843;27;20534;-55
2022/01/04 11:03:36;;;;;;;5.37;2.00;;;;;;;22.17;29.64;95170.19;5136030;27;20418;-54
2022/01/04 11:06:11;;;;;;;1.57;1.00;;;;;;;21.78;30.03;95090.88;5136196;27;20475;-54
2022/01/04 11:08:43;;;;;;;1.70;1.60;;;;;;;21.85;30.05;95191.72;5135981;27;20414;-55
2022/01/04 11:11:11;;;;;;;3.20;2.50;;;;;;;21.28;30.60;95189.22;5136026;27;20423;-58
2022/01/04 11:13:40;;;;;;;0.90;0.90;;;;;;;21.67;30.23;95185.00;5136139;27;20767;-55
2022/01/04 11:16:09;;;;;;;0.70;0.63;;;;;;;22.49;29.96;95177.22;5135974;27;20475;-55
2022/01/04 11:18:41;;;;;;;0.70;0.70;;;;;;;24.17;27.49;95138.84;5136120;27;20891;-55
2022/01/04 11:21:13;;;;;;;1.50;1.23;;;;;;;23.76;28.27;95158.50;5136298;27;20418;-55
2022/01/04 11:23:44;;;;;;;1.33;0.83;;;;;;;24.49;26.47;95088.69;5135831;27;20443;-55
2022/01/04 11:26:13;;;;;;;4.43;2.77;;;;;;;21.89;29.84;95160.19;5135887;27;20966;-55
2022/01/04 11:28:44;;;;;;;2.35;2.25;;;;;;;22.11;30.35;95105.66;5135803;27;20450;-55
2022/01/04 11:31:23;;;;;;;1.30;1.20;;;;;;;22.13;30.26;95143.91;5136065;27;20834;-55
2022/01/04 11:34:00;;;;;;;1.93;1.43;;;;;;;22.11;29.59;95113.75;5135778;27;20854;-55
2022/01/04 11:36:30;;;;;;;4.43;1.33;;;;;;;22.94;30.43;95145.13;5135702;27;20914;-55
2022/01/04 11:39:00;;;;;;;2.80;2.27;;;;;;;22.54;29.12;95144.53;5134501;27;20418;-56
2022/01/04 11:41:42;;;;;;;4.53;1.83;;;;;;;22.69;28.85;95128.31;5135540;27;20854;-56
2022/01/04 11:44:19;;;;;;;2.73;1.30;;;;;;;23.59;27.56;95108.31;5135820;27;20495;-56
2022/01/04 11:47:01;;;;;;;1.47;1.37;;;;;;;22.40;27.07;95042.34;5135696;27;20426;-56
2022/01/04 11:49:30;;;;;;;0.97;0.97;;;;;;;22.92;27.27;95127.72;5135333;27;20473;-56
2022/01/04 11:51:59;;;;;;;1.83;0.90;;;;;;;22.91;27.25;95118.03;5135330;27;20427;-56
2022/01/04 11:54:30;;;;;;;1.23;1.20;;;;;;;23.16;27.26;95124.75;5135306;27;20419;-56
2022/01/04 11:57:02;;;;;;;1.07;0.97;;;;;;;23.29;27.32;95112.69;5135393;27;20423;-56
2022/01/04 11:59:36;;;;;;;1.00;0.50;;;;;;;24.45;26.50;95111.47;5135113;27;20430;-56
2022/01/04 12:02:26;;;;;;;0.80;0.80;;;;;;;25.78;24.54;95109.13;5135135;27;20560;-56